LUK weather

Cincinnati Municipal Airport Lunken Field
Cincinnati, Ohio, United States

Public forecast

Using degrees Fahrenheit for public forecast. Weather courtesy of forecast.io.

METAR (pilot weather report)

Retrieved 2018/08/18 16:53 UTC (42 minutes ago):

KLUK 181653Z 01004KT 10SM SCT033 BKN060 BKN085 27/22 A2996 RMK AO2 SLP140 T02670217

TAF (pilot weather forecast)

Retrieved 2018/08/18 12:22 UTC (5 hours ago):

TAF KLUK 181120Z 1812/1912 00000KT 3SM BR SCT004 SCT040 TEMPO 1812/1814 1/2SM FG OVC004 FM181400 34004KT P6SM BKN030 FM181900 35005KT P6SM VCSH BKN035 FM182300 01005KT P6SM SCT025 FM190400 VRB02KT P6SM FEW250 TEMPO 1908/1912 1SM BR SCT003